Time;durP1;ratioP1;P1;durP2;ratioP2;P2;SDS_P1;SDS_P2;PMS_P1;PMS_P2;Temp;Humidity;BMP_temperature;BMP_pressure;BME280_temperature;BME280_humidity;BME280_pressure;Samples;Min_cycle;Max_cycle;Signal;HPM_P1;HPM_P2
2023/02/26 19:20:16;;;;;;;11.40;1.65;;;17.50;50.00;;;;;;5130949;27;20466;-66
2023/02/26 19:22:44;;;;;;;12.80;1.40;;;17.60;49.30;;;;;;5136235;27;20557;-65
2023/02/26 19:25:11;;;;;;;4.70;0.90;;;17.40;48.60;;;;;;5125283;27;20108;-66
2023/02/26 19:27:38;;;;;;;20.88;2.22;;;17.00;48.70;;;;;;5125450;27;20084;-65
2023/02/26 19:30:06;;;;;;;17.55;1.00;;;17.20;48.90;;;;;;5124067;27;20150;-65
2023/02/26 19:32:33;;;;;;;3.13;1.20;;;17.20;48.50;;;;;;5125326;27;20153;-67
2023/02/26 19:34:59;;;;;;;3.97;0.85;;;17.40;48.60;;;;;;5126061;27;20071;-65
2023/02/26 19:37:26;;;;;;;8.80;0.85;;;17.60;47.60;;;;;;5125160;27;20078;-64
2023/02/26 19:39:52;;;;;;;7.72;0.80;;;17.40;45.50;;;;;;5125828;27;20118;-63
2023/02/26 19:42:19;;;;;;;2.22;0.90;;;17.30;45.20;;;;;;5127320;27;20099;-65
2023/02/26 19:44:45;;;;;;;5.35;1.30;;;17.00;45.90;;;;;;5125468;27;20575;-64
2023/02/26 19:47:11;;;;;;;4.82;1.08;;;17.30;45.90;;;;;;5127110;27;20075;-66
2023/02/26 19:49:38;;;;;;;2.20;0.70;;;17.30;46.00;;;;;;5132457;27;20071;-64
2023/02/26 19:52:07;;;;;;;2.05;0.73;;;17.50;46.40;;;;;;5126385;27;20074;-66
2023/02/26 19:54:33;;;;;;;1.50;0.80;;;17.70;46.70;;;;;;5126422;27;20085;-64
2023/02/26 19:56:59;;;;;;;5.25;1.00;;;17.70;46.20;;;;;;5127169;27;20539;-63
2023/02/26 19:59:26;;;;;;;3.88;1.05;;;17.50;46.00;;;;;;5127624;27;20087;-63
2023/02/26 20:01:52;;;;;;;4.88;0.95;;;17.60;47.30;;;;;;5129998;27;20071;-65
2023/02/26 20:04:19;;;;;;;4.75;0.50;;;17.70;48.30;;;;;;5126697;27;20166;-62
2023/02/26 20:06:45;;;;;;;2.10;0.60;;;17.80;48.50;;;;;;5125322;27;20593;-65
2023/02/26 20:09:13;;;;;;;1.25;0.40;;;17.90;48.60;;;;;;5126481;27;20485;-65
2023/02/26 20:11:39;;;;;;;6.45;1.05;;;18.20;47.60;;;;;;5129006;27;20411;-66
2023/02/26 20:14:06;;;;;;;3.83;1.08;;;18.10;47.80;;;;;;5127642;27;20407;-66
2023/02/26 20:16:33;;;;;;;1.02;0.60;;;18.30;48.10;;;;;;5125142;27;20071;-66
2023/02/26 20:18:59;;;;;;;0.88;0.60;;;18.60;47.50;;;;;;5126034;27;20110;-67
2023/02/26 20:21:26;;;;;;;3.42;0.80;;;18.80;47.80;;;;;;5124590;27;20165;-65
2023/02/26 20:23:53;;;;;;;1.30;0.73;;;19.00;47.60;;;;;;5125194;27;20082;-65
2023/02/26 20:26:19;;;;;;;1.10;0.50;;;19.10;47.20;;;;;;5125681;27;20063;-64
2023/02/26 20:28:46;;;;;;;1.10;0.50;;;19.10;46.90;;;;;;5126335;27;20435;-65
2023/02/26 20:31:12;;;;;;;7.15;0.90;;;18.70;47.10;;;;;;5113314;27;20079;-66
2023/02/26 20:33:38;;;;;;;1.60;0.40;;;18.70;47.80;;;;;;5111560;28;20067;-65
2023/02/26 20:36:06;;;;;;;2.80;0.88;;;18.90;48.30;;;;;;5112322;27;20564;-65
2023/02/26 20:38:33;;;;;;;4.05;0.50;;;18.70;47.20;;;;;;5111718;27;20109;-66
2023/02/26 20:41:00;;;;;;;1.35;0.60;;;18.60;47.90;;;;;;5112211;28;20116;-65
2023/02/26 20:43:27;;;;;;;1.15;0.50;;;18.60;48.20;;;;;;5111149;27;20074;-64
2023/02/26 20:45:55;;;;;;;0.80;0.50;;;18.30;48.70;;;;;;5113828;27;20081;-66
2023/02/26 20:48:22;;;;;;;1.13;0.80;;;18.50;48.80;;;;;;5112179;27;20071;-65
2023/02/26 20:50:52;;;;;;;1.58;0.73;;;18.60;48.20;;;;;;5111787;27;20087;-67
2023/02/26 20:53:22;;;;;;;1.42;0.57;;;19.10;48.10;;;;;;5110438;28;20070;-66
2023/02/26 20:55:48;;;;;;;4.20;0.65;;;19.00;47.20;;;;;;5111368;28;20093;-66
2023/02/26 20:58:15;;;;;;;3.80;1.30;;;18.80;46.40;;;;;;5112321;27;20124;-67
2023/02/26 21:00:42;;;;;;;1.77;0.50;;;19.00;46.30;;;;;;5111506;28;20087;-67
2023/02/26 21:03:08;;;;;;;0.60;0.30;;;18.80;46.40;;;;;;5111444;28;20157;-69
2023/02/26 21:05:36;;;;;;;3.13;0.40;;;19.00;46.60;;;;;;5112278;28;20674;-66
2023/02/26 21:08:03;;;;;;;2.70;1.25;;;18.90;46.20;;;;;;5111425;27;20091;-64
2023/02/26 21:10:31;;;;;;;0.77;0.50;;;19.10;45.80;;;;;;5111001;27;20071;-66
2023/02/26 21:12:57;;;;;;;4.50;0.82;;;19.10;46.50;;;;;;5111470;28;20140;-64
2023/02/26 21:15:24;;;;;;;1.95;0.73;;;19.20;45.90;;;;;;5111323;27;20067;-65
2023/02/26 21:17:50;;;;;;;0.55;0.52;;;19.00;46.60;;;;;;5111163;28;20579;-65
2023/02/26 21:20:17;;;;;;;2.72;0.40;;;19.10;45.70;;;;;;5109552;28;20090;-66
2023/02/26 21:22:45;;;;;;;4.72;1.00;;;19.00;46.10;;;;;;5111037;27;20067;-66
2023/02/26 21:25:11;;;;;;;2.33;0.57;;;19.20;46.10;;;;;;5111374;27;20056;-69
2023/02/26 21:27:38;;;;;;;11.27;2.15;;;18.90;45.90;;;;;;5111235;27;20087;-65
2023/02/26 21:30:06;;;;;;;1.40;1.00;;;19.10;45.90;;;;;;5111578;28;20478;-64
2023/02/26 21:32:33;;;;;;;1.25;0.80;;;19.60;44.60;;;;;;5110143;27;20118;-66
2023/02/26 21:34:59;;;;;;;1.95;0.75;;;19.70;44.20;;;;;;5109799;28;20067;-64
2023/02/26 21:37:26;;;;;;;3.35;1.30;;;19.40;43.80;;;;;;5108578;28;20087;-66
2023/02/26 21:39:53;;;;;;;3.28;0.50;;;19.70;43.80;;;;;;5110665;28;20997;-66
2023/02/26 21:42:21;;;;;;;4.13;1.92;;;19.70;42.90;;;;;;5109336;27;20068;-65
2023/02/26 21:44:47;;;;;;;1.70;0.73;;;20.10;42.70;;;;;;5113122;27;20085;-67
2023/02/26 21:47:14;;;;;;;1.77;0.70;;;20.20;42.20;;;;;;5110444;28;20067;-65
2023/02/26 21:49:40;;;;;;;2.17;0.90;;;20.00;42.10;;;;;;5108383;28;20079;-64
2023/02/26 21:52:07;;;;;;;0.63;0.50;;;20.00;42.00;;;;;;5109522;27;20524;-66
2023/02/26 21:54:34;;;;;;;0.70;0.57;;;19.80;42.10;;;;;;5111573;27;20067;-64
2023/02/26 21:57:00;;;;;;;2.53;1.08;;;20.00;41.80;;;;;;5109904;27;20476;-63
2023/02/26 21:59:27;;;;;;;1.27;0.70;;;20.00;42.00;;;;;;5113629;27;20091;-66
2023/02/26 22:01:53;;;;;;;0.47;0.40;;;20.10;41.30;;;;;;5106561;27;21644;-68
2023/02/26 22:04:20;;;;;;;2.17;0.70;;;20.30;40.50;;;;;;5108599;27;20115;-67
2023/02/26 22:06:47;;;;;;;3.85;1.30;;;20.40;41.10;;;;;;5109774;27;20079;-65
2023/02/26 22:09:13;;;;;;;2.85;1.20;;;20.50;41.70;;;;;;5109988;27;20087;-66
2023/02/26 22:11:40;;;;;;;3.55;1.80;;;20.30;41.60;;;;;;5109910;28;20513;-64
2023/02/26 22:14:06;;;;;;;3.75;0.70;;;19.90;41.40;;;;;;5109939;27;20075;-64
2023/02/26 22:16:33;;;;;;;3.63;1.02;;;19.70;42.10;;;;;;5108393;28;20098;-66
2023/02/26 22:18:59;;;;;;;1.50;0.85;;;20.10;42.20;;;;;;5109479;28;20121;-65
2023/02/26 22:21:26;;;;;;;7.82;0.90;;;20.30;41.50;;;;;;5109717;27;20071;-68
2023/02/26 22:23:52;;;;;;;2.35;1.25;;;20.50;41.20;;;;;;5111148;27;20067;-64
2023/02/26 22:26:19;;;;;;;2.65;1.30;;;20.30;41.00;;;;;;5112161;27;20524;-65
2023/02/26 22:28:45;;;;;;;2.58;0.80;;;19.80;41.60;;;;;;5119168;27;20075;-66
2023/02/26 22:31:12;;;;;;;1.00;0.70;;;20.20;41.50;;;;;;5108501;28;20153;-65
2023/02/26 22:33:38;;;;;;;1.88;0.90;;;20.30;41.60;;;;;;5108762;28;20075;-64
2023/02/26 22:36:05;;;;;;;0.88;0.55;;;20.20;40.80;;;;;;5111515;27;20473;-67
2023/02/26 22:38:32;;;;;;;1.27;0.63;;;20.30;41.00;;;;;;5110911;27;20136;-64
2023/02/26 22:40:58;;;;;;;2.95;1.30;;;20.20;40.80;;;;;;5106796;28;20068;-67
2023/02/26 22:43:24;;;;;;;3.08;1.27;;;20.10;41.60;;;;;;5109967;27;20108;-63
2023/02/26 22:45:51;;;;;;;1.15;0.77;;;20.10;41.90;;;;;;5109018;28;20089;-65
2023/02/26 22:48:17;;;;;;;3.45;1.25;;;20.20;42.30;;;;;;5108486;27;20071;-65
2023/02/26 22:50:43;;;;;;;4.50;1.00;;;20.00;41.90;;;;;;5113605;27;20075;-70
2023/02/26 22:53:10;;;;;;;1.90;0.82;;;20.00;42.40;;;;;;5115169;27;20520;-68
2023/02/26 22:55:36;;;;;;;6.78;1.90;;;19.80;42.30;;;;;;5117589;27;20143;-70
2023/02/26 22:58:03;;;;;;;7.38;1.40;;;20.10;42.60;;;;;;5115575;27;20157;-69
2023/02/26 23:00:29;;;;;;;2.50;0.90;;;20.10;42.00;;;;;;5114668;27;20174;-66
2023/02/26 23:02:56;;;;;;;1.17;0.50;;;20.10;42.00;;;;;;5114119;27;20482;-68
2023/02/26 23:05:22;;;;;;;3.28;0.85;;;20.10;41.80;;;;;;5117611;27;20101;-68
2023/02/26 23:07:49;;;;;;;2.58;0.80;;;19.80;41.60;;;;;;5112137;27;20094;-67
2023/02/26 23:10:17;;;;;;;2.30;0.90;;;19.50;42.00;;;;;;5113181;27;20075;-67
2023/02/26 23:12:44;;;;;;;1.67;1.00;;;19.60;42.00;;;;;;5114707;27;20083;-69
2023/02/26 23:15:11;;;;;;;3.03;1.25;;;19.70;42.10;;;;;;5115470;27;20117;-67
2023/02/26 23:17:38;;;;;;;4.10;1.25;;;19.90;41.50;;;;;;5113915;28;20089;-69
2023/02/26 23:20:08;;;;;;;2.63;0.77;;;20.10;41.30;;;;;;5116132;28;20116;-67
2023/02/26 23:22:36;;;;;;;1.08;0.52;;;19.80;42.20;;;;;;5116661;27;20524;-65
2023/02/26 23:25:03;;;;;;;3.20;0.80;;;19.60;42.10;;;;;;5120959;28;20595;-67
2023/02/26 23:27:29;;;;;;;4.43;1.10;;;19.50;42.80;;;;;;5118956;27;20609;-69
2023/02/26 23:29:55;;;;;;;3.10;0.80;;;19.70;42.90;;;;;;5111840;28;20075;-66
2023/02/26 23:32:22;;;;;;;2.70;1.15;;;19.60;43.10;;;;;;5114271;28;20156;-65
2023/02/26 23:34:48;;;;;;;5.53;1.65;;;19.80;43.70;;;;;;5116561;27;20071;-68
2023/02/26 23:37:14;;;;;;;0.75;0.60;;;19.70;42.80;;;;;;5117125;28;20413;-66
2023/02/26 23:39:41;;;;;;;5.85;1.60;;;19.70;42.00;;;;;;5117069;28;20090;-69
2023/02/26 23:42:07;;;;;;;3.20;0.70;;;19.60;42.00;;;;;;5120515;27;20519;-66
2023/02/26 23:44:34;;;;;;;2.55;0.63;;;19.60;41.80;;;;;;5119821;28;20071;-66
2023/02/26 23:47:00;;;;;;;0.98;0.70;;;19.40;41.80;;;;;;5114111;28;20581;-67
2023/02/26 23:49:26;;;;;;;2.25;1.30;;;19.20;42.00;;;;;;5117086;28;20083;-67
2023/02/26 23:51:53;;;;;;;5.07;1.50;;;19.10;42.30;;;;;;5118606;27;20078;-68
2023/02/26 23:54:19;;;;;;;5.40;1.83;;;19.10;42.60;;;;;;5110809;28;20526;-66
2023/02/26 23:56:46;;;;;;;7.20;1.90;;;19.00;42.80;;;;;;5114052;28;20079;-66
2023/02/26 23:59:12;;;;;;;5.07;1.40;;;18.80;42.90;;;;;;5113665;27;20087;-69
